Terminal Aerodrome Forecast
Issued by NWS

Home | Current Version | Previous Version | Text Only | Print | Product List | Glossary On
Versions: 1 2 3 4 5 6 7 8 9 10 11 12 13
000
FTUS44 KLIX 011700
TAFGPT
TAF
KGPT 011720Z 0118/0218 15012KT P6SM VCTS BKN025CB
     FM020000 15009KT P6SM BKN200
     FM020900 18005KT P6SM BKN200
     FM021600 15005KT P6SM VCTS BKN040CB=

USA.gov is the U.S. government's official web portal to all federal, state and local government web resources and services.